Terminal Aerodrome Forecast
Issued by NWS

Home | Current Version | Previous Version | Text Only | Print | Product List | Glossary On
Versions: 1 2 3 4 5 6 7 8 9 10 11 12 13 14 15 16 17 18
657
FTUS45 KTFX 180220 AAA
TAFCTB
TAF AMD
KCTB 180220Z 1802/1824 25018KT P6SM SCT100 BKN180
      TEMPO 1809/1812 BKN090
     FM181700 26027G35KT P6SM SKC=

USA.gov is the U.S. government's official web portal to all federal, state and local government web resources and services.